Time;durP1;ratioP1;P1;durP2;ratioP2;P2;SDS_P1;SDS_P2;PMS_P1;PMS_P2;Temp;Humidity;BMP_temperature;BMP_pressure;BME280_temperature;BME280_humidity;BME280_pressure;Samples;Min_cycle;Max_cycle;Signal;HPM_P1;HPM_P2
2022/11/27 00:00:35;;;;;;;23.60;21.37;;;;;;;;;;5071629;28;20183;-57
2022/11/27 00:03:00;;;;;;;24.93;21.53;;;;;;;;;;5071450;28;20249;-56
2022/11/27 00:05:25;;;;;;;22.60;20.47;;;;;;;;;;5071356;28;20570;-55
2022/11/27 00:07:50;;;;;;;23.73;21.23;;;;;;;;;;5067842;28;20246;-56
2022/11/27 00:10:15;;;;;;;22.67;20.30;;;;;;;;;;5058176;28;20487;-55
2022/11/27 00:12:41;;;;;;;23.60;21.30;;;;;;;;;;5071164;28;20204;-57
2022/11/27 00:15:06;;;;;;;21.15;19.30;;;;;;;;;;5060150;28;20202;-56
2022/11/27 00:17:31;;;;;;;22.10;20.10;;;;;;;;;;5051294;28;20548;-55
2022/11/27 00:19:56;;;;;;;23.23;21.13;;;;;;;;;;5051350;28;20691;-55
2022/11/27 00:22:21;;;;;;;21.83;19.83;;;;;;;;;;5051454;28;20175;-56
2022/11/27 00:24:47;;;;;;;22.70;20.30;;;;;;;;;;5068072;28;20217;-57
2022/11/27 00:27:12;;;;;;;21.03;19.23;;;;;;;;;;5071157;28;20186;-56
2022/11/27 00:29:37;;;;;;;23.80;19.77;;;;;;;;;;5072648;28;20765;-56
2022/11/27 00:32:05;;;;;;;22.43;19.20;;;;;;;;;;5080467;28;20255;-56
2022/11/27 00:34:30;;;;;;;20.80;18.80;;;;;;;;;;5060876;28;20183;-56
2022/11/27 00:36:55;;;;;;;21.83;19.53;;;;;;;;;;5070744;28;20575;-56
2022/11/27 00:39:20;;;;;;;19.98;18.17;;;;;;;;;;5055469;28;20241;-57
2022/11/27 00:41:46;;;;;;;21.40;18.63;;;;;;;;;;5076075;28;20182;-58
2022/11/27 00:44:12;;;;;;;20.27;18.17;;;;;;;;;;5083485;28;20205;-55
2022/11/27 00:46:37;;;;;;;19.13;17.33;;;;;;;;;;5089394;28;20167;-57
2022/11/27 00:49:03;;;;;;;19.20;17.43;;;;;;;;;;5075949;28;20611;-57
2022/11/27 00:51:29;;;;;;;19.57;17.50;;;;;;;;;;5070081;28;20821;-55
2022/11/27 00:53:55;;;;;;;19.80;17.90;;;;;;;;;;5078102;28;20609;-56
2022/11/27 00:56:25;;;;;;;20.27;17.13;;;;;;;;;;5090763;28;20224;-57
2022/11/27 00:58:50;;;;;;;20.60;18.03;;;;;;;;;;5079739;28;20540;-57
2022/11/27 01:01:17;;;;;;;21.40;18.80;;;;;;;;;;5070102;28;20629;-56
2022/11/27 01:03:43;;;;;;;18.60;16.87;;;;;;;;;;5055062;28;20222;-56
2022/11/27 01:06:08;;;;;;;17.70;16.20;;;;;;;;;;5050749;28;20606;-56
2022/11/27 01:08:33;;;;;;;17.90;16.40;;;;;;;;;;5060375;28;20220;-57
2022/11/27 01:10:59;;;;;;;19.93;17.87;;;;;;;;;;5068666;28;20168;-57
2022/11/27 01:13:26;;;;;;;20.80;14.93;;;;;;;;;;5058506;28;20204;-57
2022/11/27 01:16:01;;;;;;;18.93;14.53;;;;;;;;;;5053854;28;20186;-57
2022/11/27 01:18:27;;;;;;;17.80;16.10;;;;;;;;;;5052923;28;20646;-58
2022/11/27 01:20:52;;;;;;;18.53;16.63;;;;;;;;;;5050771;28;21489;-57
2022/11/27 01:23:18;;;;;;;17.77;15.97;;;;;;;;;;5053620;28;20182;-57
2022/11/27 01:25:43;;;;;;;17.30;15.83;;;;;;;;;;5054408;28;20610;-57
2022/11/27 01:28:08;;;;;;;19.77;15.33;;;;;;;;;;5064805;28;20172;-57
2022/11/27 01:30:36;;;;;;;18.03;16.20;;;;;;;;;;5077659;28;20625;-57
2022/11/27 01:33:01;;;;;;;18.77;16.87;;;;;;;;;;5084523;28;20189;-57
2022/11/27 01:35:26;;;;;;;18.43;15.03;;;;;;;;;;5059366;28;20623;-57
2022/11/27 01:37:51;;;;;;;18.15;16.25;;;;;;;;;;5062713;28;20521;-57
2022/11/27 01:40:17;;;;;;;18.63;14.90;;;;;;;;;;5065355;28;20190;-57
2022/11/27 01:42:42;;;;;;;22.65;16.48;;;;;;;;;;5082883;28;20177;-57
2022/11/27 01:45:09;;;;;;;20.27;17.93;;;;;;;;;;5089186;28;20222;-57
2022/11/27 01:47:37;;;;;;;18.50;16.47;;;;;;;;;;5079432;28;20179;-57
2022/11/27 01:50:14;;;;;;;19.40;17.70;;;;;;;;;;5072335;28;20603;-58
2022/11/27 01:52:41;;;;;;;18.73;16.83;;;;;;;;;;5088034;28;20604;-58
2022/11/27 01:55:17;;;;;;;21.13;19.03;;;;;;;;;;5079753;28;20618;-57
2022/11/27 01:57:44;;;;;;;20.83;18.33;;;;;;;;;;5061396;28;20606;-56
2022/11/27 02:00:12;;;;;;;22.80;18.37;;;;;;;;;;5075984;28;20610;-56
2022/11/27 02:02:38;;;;;;;20.53;18.77;;;;;;;;;;5070058;28;20601;-56
2022/11/27 02:05:03;;;;;;;21.27;17.87;;;;;;;;;;5066187;28;20669;-57
2022/11/27 02:07:28;;;;;;;20.50;16.97;;;;;;;;;;5072917;28;20180;-56
2022/11/27 02:09:54;;;;;;;21.20;18.37;;;;;;;;;;5070798;28;20183;-57
2022/11/27 02:12:23;;;;;;;21.77;18.87;;;;;;;;;;5075871;28;20228;-57
2022/11/27 02:14:55;;;;;;;20.53;17.90;;;;;;;;;;5055455;28;20187;-56
2022/11/27 02:17:21;;;;;;;19.70;17.80;;;;;;;;;;5064775;28;20616;-56
2022/11/27 02:20:05;;;;;;;22.60;17.90;;;;;;;;;;5067658;28;20611;-55
2022/11/27 02:22:38;;;;;;;22.07;17.60;;;;;;;;;;5056626;28;20626;-56
2022/11/27 02:25:19;;;;;;;19.67;17.60;;;;;;;;;;5058442;28;20713;-57
2022/11/27 02:27:59;;;;;;;19.97;16.90;;;;;;;;;;5070784;28;20612;-57
2022/11/27 02:30:25;;;;;;;18.90;16.90;;;;;;;;;;5058733;28;20950;-56
2022/11/27 02:32:55;;;;;;;17.37;15.60;;;;;;;;;;5066766;28;20632;-56
2022/11/27 02:35:23;;;;;;;18.63;16.63;;;;;;;;;;5074547;28;20191;-56
2022/11/27 02:37:55;;;;;;;17.63;15.73;;;;;;;;;;5074259;28;20615;-55
2022/11/27 02:40:26;;;;;;;25.20;17.87;;;;;;;;;;5069834;28;20613;-56
2022/11/27 02:43:08;;;;;;;19.23;16.60;;;;;;;;;;5080518;28;20617;-56
2022/11/27 02:45:35;;;;;;;18.83;15.97;;;;;;;;;;5088315;28;20662;-56
2022/11/27 02:48:01;;;;;;;20.20;18.03;;;;;;;;;;5074060;28;20751;-55
2022/11/27 02:50:28;;;;;;;18.83;16.90;;;;;;;;;;5068317;28;20700;-56
2022/11/27 02:52:54;;;;;;;18.80;16.80;;;;;;;;;;5056480;28;20272;-56
2022/11/27 02:55:22;;;;;;;20.00;16.90;;;;;;;;;;5069419;28;20658;-56
2022/11/27 02:57:49;;;;;;;19.50;16.00;;;;;;;;;;5054601;28;21242;-56
2022/11/27 03:00:14;;;;;;;21.47;17.83;;;;;;;;;;5066600;28;20624;-55
2022/11/27 03:02:42;;;;;;;21.40;17.70;;;;;;;;;;5072347;28;21150;-56
2022/11/27 03:05:09;;;;;;;21.53;17.87;;;;;;;;;;5070291;28;20222;-56
2022/11/27 03:07:37;;;;;;;24.93;17.60;;;;;;;;;;5070304;28;20654;-56
2022/11/27 03:10:07;;;;;;;26.03;18.70;;;;;;;;;;5060579;28;20601;-56
2022/11/27 03:12:32;;;;;;;18.30;16.10;;;;;;;;;;5063061;28;20626;-56
2022/11/27 03:14:57;;;;;;;19.27;17.37;;;;;;;;;;5071567;28;20606;-57
2022/11/27 03:17:35;;;;;;;17.43;15.47;;;;;;;;;;5070676;28;20603;-56
2022/11/27 03:20:03;;;;;;;18.63;16.60;;;;;;;;;;5069560;28;20192;-56
2022/11/27 03:22:30;;;;;;;18.93;16.73;;;;;;;;;;5066704;28;20667;-56
2022/11/27 03:24:56;;;;;;;22.90;17.80;;;;;;;;;;5072009;28;20691;-56
2022/11/27 03:27:25;;;;;;;21.90;18.33;;;;;;;;;;5071978;28;20594;-56
2022/11/27 03:29:52;;;;;;;18.77;16.77;;;;;;;;;;5069431;28;20632;-56
2022/11/27 03:32:17;;;;;;;20.13;18.03;;;;;;;;;;5057353;28;20619;-56
2022/11/27 03:34:43;;;;;;;22.13;18.30;;;;;;;;;;5055530;28;20714;-56
2022/11/27 03:37:08;;;;;;;20.73;17.93;;;;;;;;;;5061692;28;20171;-57
2022/11/27 03:39:33;;;;;;;20.73;17.97;;;;;;;;;;5069386;28;20200;-57
2022/11/27 03:42:04;;;;;;;20.03;18.10;;;;;;;;;;5070385;28;20179;-56
2022/11/27 03:44:29;;;;;;;20.43;18.33;;;;;;;;;;5071860;28;20249;-57
2022/11/27 03:47:04;;;;;;;21.23;18.97;;;;;;;;;;5068549;28;20618;-57
2022/11/27 03:49:48;;;;;;;18.37;16.63;;;;;;;;;;5071896;28;20331;-56
2022/11/27 03:52:18;;;;;;;19.87;17.77;;;;;;;;;;5059692;28;20663;-57
2022/11/27 03:54:50;;;;;;;22.23;18.57;;;;;;;;;;5061340;28;21162;-56
2022/11/27 03:57:32;;;;;;;19.80;17.83;;;;;;;;;;5091346;28;20924;-56
2022/11/27 03:59:58;;;;;;;22.37;17.93;;;;;;;;;;5081097;28;21052;-57
2022/11/27 04:02:37;;;;;;;19.43;17.40;;;;;;;;;;5061868;28;20633;-57
2022/11/27 04:05:03;;;;;;;19.57;17.60;;;;;;;;;;5063275;28;20649;-55
2022/11/27 04:07:28;;;;;;;18.97;16.93;;;;;;;;;;5066485;28;21248;-56
2022/11/27 04:09:53;;;;;;;19.52;17.60;;;;;;;;;;5061305;28;20171;-56
2022/11/27 04:12:18;;;;;;;18.13;16.10;;;;;;;;;;5069273;28;20721;-56
2022/11/27 04:14:43;;;;;;;19.07;17.03;;;;;;;;;;5065401;28;20175;-56
2022/11/27 04:17:08;;;;;;;20.13;16.83;;;;;;;;;;5057479;28;20178;-56
2022/11/27 04:19:34;;;;;;;19.73;16.60;;;;;;;;;;5071120;28;20222;-56
2022/11/27 04:21:59;;;;;;;21.33;16.63;;;;;;;;;;5071159;28;20191;-57
2022/11/27 04:24:24;;;;;;;23.17;17.93;;;;;;;;;;5066351;28;20556;-57
2022/11/27 04:26:49;;;;;;;19.10;17.00;;;;;;;;;;5060001;28;20178;-57
2022/11/27 04:29:14;;;;;;;25.30;15.88;;;;;;;;;;5070814;28;20161;-57
2022/11/27 04:31:39;;;;;;;17.00;15.13;;;;;;;;;;5058040;28;20202;-56
2022/11/27 04:34:04;;;;;;;21.80;16.47;;;;;;;;;;5064601;28;20253;-57
2022/11/27 04:36:30;;;;;;;18.17;16.25;;;;;;;;;;5068497;28;20186;-56
2022/11/27 04:38:55;;;;;;;19.67;15.77;;;;;;;;;;5059492;28;20175;-56
2022/11/27 04:41:20;;;;;;;15.00;13.60;;;;;;;;;;5070589;28;20635;-56
2022/11/27 04:43:45;;;;;;;18.40;16.40;;;;;;;;;;5070644;28;20179;-57
2022/11/27 04:46:10;;;;;;;15.98;14.23;;;;;;;;;;5066661;28;20172;-57
2022/11/27 04:48:35;;;;;;;14.90;13.30;;;;;;;;;;5064723;28;20178;-57
2022/11/27 04:51:01;;;;;;;15.93;14.33;;;;;;;;;;5060549;28;20260;-57
2022/11/27 04:53:26;;;;;;;18.30;14.10;;;;;;;;;;5060413;28;20513;-57
2022/11/27 04:55:51;;;;;;;13.90;12.40;;;;;;;;;;5065190;28;20189;-57
2022/11/27 04:58:16;;;;;;;19.57;14.17;;;;;;;;;;5070524;28;20231;-57
2022/11/27 05:00:41;;;;;;;16.47;14.77;;;;;;;;;;5068971;28;20266;-56
2022/11/27 05:03:07;;;;;;;32.73;14.70;;;;;;;;;;5068636;28;20310;-56
2022/11/27 05:05:32;;;;;;;25.40;13.70;;;;;;;;;;5065843;28;20209;-56
2022/11/27 05:07:57;;;;;;;40.23;15.87;;;;;;;;;;5058344;28;20175;-56
2022/11/27 05:10:22;;;;;;;23.17;15.87;;;;;;;;;;5054592;28;20188;-56
2022/11/27 05:12:47;;;;;;;39.07;16.63;;;;;;;;;;5063104;28;20615;-57
2022/11/27 05:15:13;;;;;;;35.43;16.13;;;;;;;;;;5068289;28;20596;-55
2022/11/27 05:17:38;;;;;;;34.07;16.40;;;;;;;;;;5066165;28;20228;-56
2022/11/27 05:20:03;;;;;;;21.50;15.33;;;;;;;;;;5053991;28;20274;-56
2022/11/27 05:22:29;;;;;;;28.87;15.17;;;;;;;;;;5067086;28;20178;-56
2022/11/27 05:24:54;;;;;;;31.57;17.03;;;;;;;;;;5063221;28;20232;-58
2022/11/27 05:27:19;;;;;;;38.83;15.70;;;;;;;;;;5064711;28;20182;-56
2022/11/27 05:29:44;;;;;;;54.17;14.87;;;;;;;;;;5063896;28;20551;-57
2022/11/27 05:32:10;;;;;;;37.87;14.70;;;;;;;;;;5055015;28;20620;-57
2022/11/27 05:34:35;;;;;;;38.60;14.90;;;;;;;;;;5068057;28;20605;-57
2022/11/27 05:37:00;;;;;;;14.77;12.90;;;;;;;;;;5070017;28;20181;-57
2022/11/27 05:39:25;;;;;;;23.53;13.60;;;;;;;;;;5068371;28;20642;-55
2022/11/27 05:41:50;;;;;;;15.50;13.20;;;;;;;;;;5054847;28;20272;-55
2022/11/27 05:44:16;;;;;;;20.77;13.97;;;;;;;;;;5068821;28;20201;-58
2022/11/27 05:46:44;;;;;;;32.00;13.87;;;;;;;;;;5065724;28;20653;-55
2022/11/27 05:49:13;;;;;;;27.60;12.87;;;;;;;;;;5062870;28;20206;-56
2022/11/27 05:51:39;;;;;;;12.33;11.17;;;;;;;;;;5052441;28;20587;-56
2022/11/27 05:54:04;;;;;;;17.33;11.40;;;;;;;;;;5058500;28;20657;-57
2022/11/27 05:56:29;;;;;;;11.37;9.80;;;;;;;;;;5056641;28;20181;-57
2022/11/27 05:58:54;;;;;;;13.17;10.20;;;;;;;;;;5049885;28;20299;-56
2022/11/27 06:01:20;;;;;;;12.00;10.13;;;;;;;;;;5046467;28;20177;-57
2022/11/27 06:03:45;;;;;;;23.73;10.67;;;;;;;;;;5068771;28;20261;-56
2022/11/27 06:06:11;;;;;;;12.63;10.40;;;;;;;;;;5069338;28;20228;-56
2022/11/27 06:08:37;;;;;;;15.10;10.87;;;;;;;;;;5062108;28;20182;-56
2022/11/27 06:11:06;;;;;;;23.13;11.43;;;;;;;;;;5054061;28;20586;-57
2022/11/27 06:13:31;;;;;;;13.43;10.97;;;;;;;;;;5053446;28;20186;-57
2022/11/27 06:15:56;;;;;;;12.63;9.65;;;;;;;;;;5072147;28;20658;-56
2022/11/27 06:18:21;;;;;;;14.30;9.67;;;;;;;;;;5067813;28;20227;-55
2022/11/27 06:20:47;;;;;;;11.10;9.70;;;;;;;;;;5075313;28;20210;-57
2022/11/27 06:23:12;;;;;;;17.17;9.63;;;;;;;;;;5073440;28;20240;-57
2022/11/27 06:25:37;;;;;;;14.73;10.40;;;;;;;;;;5073448;28;20223;-54
2022/11/27 06:28:02;;;;;;;18.37;10.97;;;;;;;;;;5073437;28;20178;-56
2022/11/27 06:30:27;;;;;;;20.67;10.40;;;;;;;;;;5075626;28;20613;-57
2022/11/27 06:32:52;;;;;;;73.32;13.80;;;;;;;;;;5069880;28;20172;-56
2022/11/27 06:35:18;;;;;;;44.13;10.70;;;;;;;;;;5068540;28;20665;-56
2022/11/27 06:37:43;;;;;;;21.33;10.37;;;;;;;;;;5071138;28;20180;-58
2022/11/27 06:40:08;;;;;;;31.00;11.33;;;;;;;;;;5083165;28;20234;-57
2022/11/27 06:42:33;;;;;;;24.10;10.33;;;;;;;;;;5086651;28;20237;-56
2022/11/27 06:44:58;;;;;;;45.13;11.03;;;;;;;;;;5072115;28;20210;-56
2022/11/27 06:47:24;;;;;;;29.40;11.03;;;;;;;;;;5065808;28;20253;-57
2022/11/27 06:49:49;;;;;;;13.90;10.43;;;;;;;;;;5075305;28;20674;-57
2022/11/27 06:52:14;;;;;;;23.30;11.40;;;;;;;;;;5083197;28;20177;-57
2022/11/27 06:54:39;;;;;;;20.27;10.40;;;;;;;;;;5089740;28;20186;-57
2022/11/27 06:57:04;;;;;;;16.70;11.13;;;;;;;;;;5074525;28;20179;-58
2022/11/27 06:59:30;;;;;;;43.57;12.77;;;;;;;;;;5073262;28;20201;-58
2022/11/27 07:01:55;;;;;;;23.00;11.20;;;;;;;;;;5057900;28;20187;-56
2022/11/27 07:04:20;;;;;;;22.63;11.80;;;;;;;;;;5059320;28;20616;-57
2022/11/27 07:06:45;;;;;;;51.20;13.07;;;;;;;;;;5068749;28;20321;-57
2022/11/27 07:09:10;;;;;;;27.45;13.20;;;;;;;;;;5073957;28;20381;-56
2022/11/27 07:11:37;;;;;;;19.67;11.23;;;;;;;;;;5057957;28;20195;-57
2022/11/27 07:14:03;;;;;;;17.67;11.57;;;;;;;;;;5064060;28;20203;-56
2022/11/27 07:16:29;;;;;;;14.40;11.30;;;;;;;;;;5053321;28;20671;-58
2022/11/27 07:18:56;;;;;;;21.27;12.13;;;;;;;;;;5057908;28;21287;-56
2022/11/27 07:21:22;;;;;;;31.00;13.23;;;;;;;;;;5064311;28;20616;-58
2022/11/27 07:23:47;;;;;;;18.80;12.63;;;;;;;;;;5055891;28;20615;-58
2022/11/27 07:26:13;;;;;;;49.70;14.90;;;;;;;;;;5073292;28;20543;-58
2022/11/27 07:28:39;;;;;;;24.30;11.90;;;;;;;;;;5065846;28;20190;-56
2022/11/27 07:31:04;;;;;;;18.20;11.90;;;;;;;;;;5069836;28;21152;-56
2022/11/27 07:33:30;;;;;;;17.40;12.70;;;;;;;;;;5074079;28;20182;-56
2022/11/27 07:35:58;;;;;;;36.07;13.90;;;;;;;;;;5066704;28;20179;-56
2022/11/27 07:38:23;;;;;;;39.17;14.50;;;;;;;;;;5071954;28;20181;-57
2022/11/27 07:40:49;;;;;;;39.17;13.13;;;;;;;;;;5053482;28;20612;-55
2022/11/27 07:43:14;;;;;;;26.83;11.60;;;;;;;;;;5071977;28;20320;-56
2022/11/27 07:45:39;;;;;;;28.90;12.38;;;;;;;;;;5064999;28;20211;-57
2022/11/27 07:48:04;;;;;;;14.57;11.20;;;;;;;;;;5059433;28;20714;-56
2022/11/27 07:50:29;;;;;;;16.93;11.60;;;;;;;;;;5067106;28;20182;-56
2022/11/27 07:52:55;;;;;;;23.40;12.20;;;;;;;;;;5058638;28;20679;-57
2022/11/27 07:55:20;;;;;;;31.70;13.90;;;;;;;;;;5073895;28;20190;-58
2022/11/27 07:57:45;;;;;;;23.77;13.10;;;;;;;;;;5074407;28;20270;-56
2022/11/27 08:00:10;;;;;;;17.15;12.65;;;;;;;;;;5068551;28;20187;-57
2022/11/27 08:02:36;;;;;;;32.30;13.00;;;;;;;;;;5074308;28;20230;-57
2022/11/27 08:05:01;;;;;;;21.53;13.43;;;;;;;;;;5079035;28;20656;-56
2022/11/27 08:07:27;;;;;;;23.17;13.50;;;;;;;;;;5057382;28;20180;-56
2022/11/27 08:09:52;;;;;;;32.70;14.87;;;;;;;;;;5073565;28;20183;-57
2022/11/27 08:12:17;;;;;;;18.50;16.00;;;;;;;;;;5067167;28;20623;-57
2022/11/27 08:14:43;;;;;;;17.47;13.27;;;;;;;;;;5082886;28;20273;-57
2022/11/27 08:17:11;;;;;;;54.50;16.80;;;;;;;;;;5063356;28;20184;-56
2022/11/27 08:19:36;;;;;;;24.53;17.13;;;;;;;;;;5068329;28;20231;-57
2022/11/27 08:22:01;;;;;;;22.43;16.83;;;;;;;;;;5059581;28;21053;-56
2022/11/27 08:24:26;;;;;;;27.50;16.87;;;;;;;;;;5054274;28;20258;-57
2022/11/27 08:26:51;;;;;;;42.73;18.37;;;;;;;;;;5065639;28;20190;-56
2022/11/27 08:29:18;;;;;;;30.40;17.77;;;;;;;;;;5063934;28;20308;-56
2022/11/27 08:31:43;;;;;;;29.73;17.17;;;;;;;;;;5055162;28;21230;-61
2022/11/27 08:34:08;;;;;;;23.47;17.00;;;;;;;;;;5074676;28;20186;-57
2022/11/27 08:36:33;;;;;;;25.13;18.57;;;;;;;;;;5067560;28;20182;-58
2022/11/27 08:38:58;;;;;;;42.20;20.47;;;;;;;;;;5087433;28;20186;-57
2022/11/27 08:41:24;;;;;;;25.87;19.37;;;;;;;;;;5084909;28;20286;-56
2022/11/27 08:43:49;;;;;;;25.33;18.93;;;;;;;;;;5063296;28;20306;-56
2022/11/27 08:46:14;;;;;;;31.30;20.57;;;;;;;;;;5064482;28;20264;-59
2022/11/27 08:48:40;;;;;;;49.47;22.07;;;;;;;;;;5069909;28;20187;-57
2022/11/27 08:51:06;;;;;;;35.83;21.30;;;;;;;;;;5066960;28;20599;-57
2022/11/27 08:53:32;;;;;;;25.63;20.23;;;;;;;;;;5060967;28;20693;-57
2022/11/27 08:56:03;;;;;;;28.37;19.77;;;;;;;;;;5074655;28;21093;-55
2022/11/27 08:58:28;;;;;;;30.57;21.73;;;;;;;;;;5082758;28;20477;-56
2022/11/27 09:00:53;;;;;;;27.23;22.40;;;;;;;;;;5072225;28;20688;-58
2022/11/27 09:03:18;;;;;;;26.53;22.90;;;;;;;;;;5062547;28;20269;-56
2022/11/27 09:05:44;;;;;;;31.23;22.27;;;;;;;;;;5065540;28;20211;-56
2022/11/27 09:08:11;;;;;;;28.73;25.03;;;;;;;;;;5056849;28;20202;-57
2022/11/27 09:10:36;;;;;;;29.10;25.93;;;;;;;;;;5053954;28;20180;-56
2022/11/27 09:13:01;;;;;;;30.17;24.00;;;;;;;;;;5071080;28;20626;-57
2022/11/27 09:15:27;;;;;;;30.20;27.03;;;;;;;;;;5058139;28;20247;-56
2022/11/27 09:17:52;;;;;;;30.80;25.70;;;;;;;;;;5053978;28;20255;-57
2022/11/27 09:20:17;;;;;;;30.13;26.90;;;;;;;;;;5057750;28;20186;-57
2022/11/27 09:22:42;;;;;;;34.37;30.90;;;;;;;;;;5067900;28;20186;-56
2022/11/27 09:25:08;;;;;;;34.80;29.13;;;;;;;;;;5064689;28;20294;-56
2022/11/27 09:27:33;;;;;;;34.90;29.10;;;;;;;;;;5068175;28;20186;-57
2022/11/27 09:29:59;;;;;;;34.30;28.77;;;;;;;;;;5066352;28;21067;-58
2022/11/27 09:32:24;;;;;;;34.20;30.70;;;;;;;;;;5064158;28;20232;-57
2022/11/27 09:34:52;;;;;;;30.93;26.60;;;;;;;;;;5050528;28;20185;-56
2022/11/27 09:37:17;;;;;;;34.80;28.07;;;;;;;;;;5055801;28;20258;-56
2022/11/27 09:39:42;;;;;;;33.53;28.73;;;;;;;;;;5066165;28;21047;-56
2022/11/27 09:42:11;;;;;;;28.00;24.60;;;;;;;;;;5062344;28;20180;-56
2022/11/27 09:44:41;;;;;;;28.10;25.20;;;;;;;;;;5064479;28;20312;-56
2022/11/27 09:47:21;;;;;;;31.57;27.93;;;;;;;;;;5060381;28;21025;-57
2022/11/27 09:49:46;;;;;;;28.73;25.83;;;;;;;;;;5062791;28;20605;-58
2022/11/27 09:52:30;;;;;;;27.52;24.55;;;;;;;;;;5073974;28;20868;-57
2022/11/27 09:54:59;;;;;;;25.60;22.80;;;;;;;;;;5071383;28;20258;-57
2022/11/27 09:57:30;;;;;;;26.60;23.77;;;;;;;;;;5068645;28;21216;-56
2022/11/27 09:59:57;;;;;;;28.67;25.93;;;;;;;;;;5075072;28;20625;-56
2022/11/27 10:02:28;;;;;;;25.33;22.70;;;;;;;;;;5063666;28;20618;-55
2022/11/27 10:04:53;;;;;;;27.30;24.60;;;;;;;;;;5066494;28;20658;-57
2022/11/27 10:07:21;;;;;;;25.03;22.53;;;;;;;;;;5073886;28;21221;-56
2022/11/27 10:09:56;;;;;;;25.30;23.00;;;;;;;;;;5076277;28;20229;-57
2022/11/27 10:12:40;;;;;;;26.33;23.80;;;;;;;;;;5066113;28;20645;-57
2022/11/27 10:15:07;;;;;;;25.77;22.40;;;;;;;;;;5066871;28;20940;-58
2022/11/27 10:17:38;;;;;;;25.70;23.30;;;;;;;;;;5068008;28;20668;-57
2022/11/27 10:20:15;;;;;;;22.93;20.60;;;;;;;;;;5066815;28;20714;-56
2022/11/27 10:22:46;;;;;;;24.60;22.20;;;;;;;;;;5070578;28;21184;-57
2022/11/27 10:25:16;;;;;;;22.83;20.80;;;;;;;;;;5067845;28;21011;-56
2022/11/27 10:27:45;;;;;;;22.93;20.83;;;;;;;;;;5073524;28;20803;-55
2022/11/27 10:30:18;;;;;;;21.43;19.33;;;;;;;;;;5081859;28;20634;-56
2022/11/27 10:32:44;;;;;;;21.07;19.17;;;;;;;;;;5068707;28;20604;-56
2022/11/27 10:35:12;;;;;;;18.60;17.00;;;;;;;;;;5066965;28;20617;-57
2022/11/27 10:37:42;;;;;;;18.60;17.10;;;;;;;;;;5065854;28;20976;-56
2022/11/27 10:40:17;;;;;;;15.93;14.53;;;;;;;;;;5071151;28;20621;-56
2022/11/27 10:43:03;;;;;;;16.33;14.77;;;;;;;;;;5063555;28;20620;-55
2022/11/27 10:45:43;;;;;;;15.50;14.10;;;;;;;;;;5064172;28;20657;-56
2022/11/27 10:48:08;;;;;;;16.87;13.80;;;;;;;;;;5069879;28;20611;-55
2022/11/27 10:50:33;;;;;;;15.80;14.43;;;;;;;;;;5068284;28;20666;-57
2022/11/27 10:52:59;;;;;;;13.80;12.47;;;;;;;;;;5075196;28;20182;-55
2022/11/27 10:55:45;;;;;;;13.87;12.60;;;;;;;;;;5077543;28;20263;-56
2022/11/27 10:58:30;;;;;;;12.60;11.37;;;;;;;;;;5069862;28;20645;-57
2022/11/27 11:00:59;;;;;;;12.93;11.73;;;;;;;;;;5077294;28;21065;-56
2022/11/27 11:03:24;;;;;;;13.17;12.00;;;;;;;;;;5067194;28;20631;-56
2022/11/27 11:05:54;;;;;;;12.70;11.57;;;;;;;;;;5064978;28;20660;-57
2022/11/27 11:08:20;;;;;;;13.20;12.00;;;;;;;;;;5077512;28;20189;-57
2022/11/27 11:10:48;;;;;;;13.73;12.30;;;;;;;;;;5066591;28;20711;-57
2022/11/27 11:13:18;;;;;;;12.87;11.67;;;;;;;;;;5057608;28;20210;-56
2022/11/27 11:15:49;;;;;;;12.57;11.33;;;;;;;;;;5076310;28;20611;-55
2022/11/27 11:18:18;;;;;;;12.60;11.57;;;;;;;;;;5059679;28;20658;-56
2022/11/27 11:20:48;;;;;;;11.50;10.30;;;;;;;;;;5062614;28;20628;-58
2022/11/27 11:23:24;;;;;;;12.67;11.43;;;;;;;;;;5061828;28;20628;-57
2022/11/27 11:25:51;;;;;;;12.53;11.30;;;;;;;;;;5069389;28;20664;-56
2022/11/27 11:28:17;;;;;;;13.83;11.07;;;;;;;;;;5067260;28;20617;-55
2022/11/27 11:30:51;;;;;;;14.30;11.30;;;;;;;;;;5061710;28;20695;-56
2022/11/27 11:33:16;;;;;;;12.47;11.27;;;;;;;;;;5063404;28;20618;-56
2022/11/27 11:35:41;;;;;;;12.77;11.60;;;;;;;;;;5061922;28;20620;-55
2022/11/27 11:38:15;;;;;;;11.73;10.53;;;;;;;;;;5059831;28;20181;-56
2022/11/27 11:40:44;;;;;;;12.60;11.40;;;;;;;;;;5070857;28;20262;-57
2022/11/27 11:43:28;;;;;;;13.27;11.90;;;;;;;;;;5058435;28;20621;-56
2022/11/27 11:45:55;;;;;;;12.20;10.90;;;;;;;;;;5059667;28;20651;-56
2022/11/27 11:48:21;;;;;;;12.60;11.50;;;;;;;;;;5071581;28;20590;-56
2022/11/27 11:50:50;;;;;;;11.87;10.87;;;;;;;;;;5072125;28;20659;-56
2022/11/27 11:53:21;;;;;;;10.97;10.03;;;;;;;;;;5078187;28;20789;-56
2022/11/27 11:55:55;;;;;;;12.10;10.93;;;;;;;;;;5049546;28;20609;-56
2022/11/27 11:58:38;;;;;;;11.40;10.37;;;;;;;;;;5052270;28;20617;-56
2022/11/27 12:01:21;;;;;;;11.63;10.53;;;;;;;;;;5072777;28;20655;-57
2022/11/27 12:03:56;;;;;;;11.07;10.07;;;;;;;;;;5071063;28;20578;-55
2022/11/27 12:06:31;;;;;;;12.00;10.80;;;;;;;;;;5064784;28;20670;-57
2022/11/27 12:08:59;;;;;;;11.17;10.17;;;;;;;;;;5050891;28;20592;-55
2022/11/27 12:11:45;;;;;;;10.97;10.03;;;;;;;;;;5065940;28;21204;-56
2022/11/27 12:14:32;;;;;;;9.83;9.03;;;;;;;;;;5050558;28;20613;-56
2022/11/27 12:17:09;;;;;;;10.67;9.60;;;;;;;;;;5056034;28;20606;-57
2022/11/27 12:19:46;;;;;;;10.07;9.10;;;;;;;;;;5058061;28;21292;-56
2022/11/27 12:22:28;;;;;;;10.90;10.00;;;;;;;;;;5053742;28;21178;-57
2022/11/27 12:25:05;;;;;;;10.60;9.70;;;;;;;;;;5060536;28;20653;-56
2022/11/27 12:28:00;;;;;;;12.00;9.53;;;;;;;;;;5067109;28;20598;-58
2022/11/27 12:30:33;;;;;;;10.30;9.40;;;;;;;;;;5072933;28;20595;-55
2022/11/27 12:33:25;;;;;;;10.90;9.80;;;;;;;;;;5079936;28;20604;-56
2022/11/27 12:36:09;;;;;;;10.67;9.67;;;;;;;;;;5068002;28;20966;-56
2022/11/27 12:38:40;;;;;;;11.73;10.50;;;;;;;;;;5067164;28;20911;-56
2022/11/27 12:41:17;;;;;;;11.50;10.50;;;;;;;;;;5079016;28;20699;-56
2022/11/27 12:43:45;;;;;;;11.80;10.80;;;;;;;;;;5071313;28;20624;-56
2022/11/27 12:46:10;;;;;;;11.93;10.73;;;;;;;;;;5075677;28;20651;-56
2022/11/27 12:48:39;;;;;;;12.67;11.40;;;;;;;;;;5065127;28;20619;-55
2022/11/27 12:51:25;;;;;;;11.27;10.27;;;;;;;;;;5062498;28;20182;-56
2022/11/27 12:54:11;;;;;;;11.10;9.97;;;;;;;;;;5068064;28;20600;-56
2022/11/27 12:56:42;;;;;;;13.43;10.20;;;;;;;;;;5070828;28;20678;-55
2022/11/27 12:59:10;;;;;;;14.23;10.00;;;;;;;;;;5070140;28;20613;-56
2022/11/27 13:01:39;;;;;;;11.70;10.60;;;;;;;;;;5056686;28;20602;-56
2022/11/27 13:04:23;;;;;;;9.63;8.90;;;;;;;;;;5060053;28;20608;-55
2022/11/27 13:06:52;;;;;;;10.27;9.03;;;;;;;;;;5065767;28;20602;-58
2022/11/27 13:09:23;;;;;;;9.70;8.80;;;;;;;;;;5063684;28;20600;-57
2022/11/27 13:11:49;;;;;;;10.27;9.27;;;;;;;;;;5059517;28;20611;-57
2022/11/27 13:14:22;;;;;;;9.77;8.90;;;;;;;;;;5061360;28;20617;-57
2022/11/27 13:16:50;;;;;;;11.37;10.27;;;;;;;;;;5049699;28;20263;-57
2022/11/27 13:19:27;;;;;;;10.50;9.53;;;;;;;;;;5069809;28;20749;-56
2022/11/27 13:21:55;;;;;;;8.93;8.20;;;;;;;;;;5064753;28;20617;-55
2022/11/27 13:24:21;;;;;;;10.23;9.23;;;;;;;;;;5062374;28;20645;-56
2022/11/27 13:26:49;;;;;;;9.83;8.93;;;;;;;;;;5054972;28;20715;-56
2022/11/27 13:29:18;;;;;;;9.30;8.50;;;;;;;;;;5065268;28;20713;-56
2022/11/27 13:31:44;;;;;;;9.37;8.57;;;;;;;;;;5060096;28;20659;-56
2022/11/27 13:34:20;;;;;;;8.80;7.90;;;;;;;;;;5062563;28;20655;-57
2022/11/27 13:36:53;;;;;;;9.73;8.80;;;;;;;;;;5067051;28;21038;-56
2022/11/27 13:39:23;;;;;;;9.87;8.97;;;;;;;;;;5051005;28;20611;-56
2022/11/27 13:41:58;;;;;;;8.60;7.83;;;;;;;;;;5064845;28;20595;-57
2022/11/27 13:44:27;;;;;;;9.27;8.57;;;;;;;;;;5050629;28;20640;-56
2022/11/27 13:46:55;;;;;;;9.10;8.30;;;;;;;;;;5055769;28;20596;-56
2022/11/27 13:49:42;;;;;;;10.60;9.50;;;;;;;;;;5052221;28;20704;-57
2022/11/27 13:52:14;;;;;;;10.10;9.00;;;;;;;;;;5059230;28;20632;-56
2022/11/27 13:54:56;;;;;;;9.60;8.60;;;;;;;;;;5052313;28;21175;-56
2022/11/27 13:57:30;;;;;;;10.13;9.23;;;;;;;;;;5062794;28;20661;-55
2022/11/27 13:59:56;;;;;;;9.97;8.97;;;;;;;;;;5057497;28;20652;-57
2022/11/27 14:02:21;;;;;;;11.07;10.07;;;;;;;;;;5065768;28;20635;-55
2022/11/27 14:04:48;;;;;;;10.77;9.87;;;;;;;;;;5066994;28;20193;-56
2022/11/27 14:07:13;;;;;;;9.50;8.70;;;;;;;;;;5073979;28;20189;-57
2022/11/27 14:09:45;;;;;;;18.37;16.50;;;;;;;;;;5059646;28;20672;-56
2022/11/27 14:12:16;;;;;;;11.03;10.07;;;;;;;;;;5059717;28;20728;-56
2022/11/27 14:14:42;;;;;;;10.53;9.43;;;;;;;;;;5075235;28;20597;-56
2022/11/27 14:17:22;;;;;;;9.40;8.60;;;;;;;;;;5047187;28;20607;-56
2022/11/27 14:19:57;;;;;;;10.63;9.13;;;;;;;;;;5070617;28;21193;-56
2022/11/27 14:22:33;;;;;;;9.40;8.60;;;;;;;;;;5045303;28;20629;-56
2022/11/27 14:24:58;;;;;;;9.47;8.47;;;;;;;;;;5053622;28;20679;-56